Terminal Aerodrome Forecast
Issued by NWS

Home | Current Version | Previous Version | Text Only | Print | Product List | Glossary On
Versions: 1 2 3 4 5 6 7 8 9 10 11 12 13 14 15 16 17 18 19 20 21 22 23 24 25 26 27 28 29 30 31 32 33 34 35 36 37 38 39 40 41 42 43 44 45
000
FTUS46 KOTX 280244 AAA
TAFSFF
TAF AMD
KSFF 280244Z 2803/2824 VRB03KT P6SM SCT009 BKN200
     FM280400 VRB03KT P6SM BKN010
     FM281000 00000KT 1SM BR OVC004
     FM281900 VRB03KT 3SM BR BKN008
     FM282100 VRB03KT P6SM SCT008=

USA.gov is the U.S. government's official web portal to all federal, state and local government web resources and services.